Weer

Current Metar

EHAM: EHAM 160755Z 20012KT 9999 BKN032 20/15 Q1014 NOSIG
EHRD: EHRD 160755Z AUTO 21012KT 180V250 9999 FEW020 21/16 Q1015 NOSIG
EHGG: EHGG 160755Z AUTO 20011KT 170V240 9999 BKN030 19/15 Q1014 NOSIG
EHEH: EHEH 160755Z AUTO 20008KT 170V230 9999 OVC320 20/15 Q1016 BLU 19006KT CAVOK
EHBK: EHBK 160755Z AUTO 19006KT 150V220 9999 OVC027 18/15 Q1017 NOSIG

Search METAR


Wind Charts

+ 0600h
FL100 FL180 FL240 FL300 FL340

+ 1200h
FL100 FL180 FL240 FL300 FL340

+ 1800h
FL100 FL180 FL240 FL300 FL340

+ 2400h
FL100 FL180 FL240 FL300 FL340

Europe & Africa charts only, updated daily.

 

Weather Services

MET Office